Aurora, OR

10:45 AM PDT on October 01, 2014 (GMT -0700)
Mineral Springs View | Change Station
CLOSE
Current Station
Personal Weather Station
Location: Hubbard, OR
Elevation: 53 m
Nearby Weather Stations
Active Advisory: Special Statement

Elev 53 m 45.19 °N, 122.81 °W | Updated 8 minutes ago

Overcast
Overcast
13.6 °C
Feels Like 13.6 °C
N
2.7
Wind Variable Wind from NNE

Today
High -- | Low -- °C
--% Chance of Precip.
Yesterday
High -- | Low -- °C
Precip. -- mm
7:09 AM 6:51 PM
Waxing Crescent, 49% visible
Pressure 1022 hPa
Visibility 16.1 kilometers
Clouds Few 518 m
Mostly Cloudy 1463 m
Overcast 1676 m
Dew Point 13 °C
Humidity 94%
Rainfall 0 mm
Snow Depth 0 in , 0 in , 0 in
UV 1 out of 12
Pollen .90 out of 12
Air Quality Not available.
Flu Activity Not available.
METAR KUAO 301753Z AUTO 22004KT 10SM FEW017 BKN048 OVC055 16/12 A3017 RMK AO2 SLP216 60001 T01560122 10156 20111 53013

More Conditions Fewer Conditions

Pressure 1022 hPa
Visibility 16.1 kilometers
Clouds Few 518 m
Mostly Cloudy 1463 m
Overcast 1676 m
Dew Point 13 °C
Humidity 94%
Rainfall 0 mm
Snow Depth 0 in , 0 in , 0 in
UV 1 out of 12
Pollen .90 out of 12
Air Quality Not available.
Flu Activity Not available.
METAR KUAO 301753Z AUTO 22004KT 10SM FEW017 BKN048 OVC055 16/12 A3017 RMK AO2 SLP216 60001 T01560122 10156 20111 53013

More Conditions Fewer Conditions

10-Day Weather Forecast

Almanac

Astronomy

Oct. 01, 2014 Rise Set
Actual Time 7:09 AM PDT 6:51 PM PDT
Civil Twilight 6:40 AM PDT 7:20 PM PDT
Nautical Twilight 6:05 AM PDT 7:54 PM PDT
Astronomical Twilight 5:31 AM PDT 8:29 PM PDT
Moon 2:26 PM PDT No Moon Set
Length of Visible Light 12h 40m
Length of Day
11h 41m
Tomorrow will be 3m 8s shorter.
Waxing Crescent, 49% of the Moon is Illuminated
Today
Waxing Crescent
Oct 1
First Quarter
Oct 8
Full
Oct 15
Last Quarter
Oct 23
New

Today's Extremes

State Highs State Lows

Community

WunderPhotos

Upload Photos

1,758,001 photos uploaded!

WunderBlogs® & News

By Dr. Jeff Masters
Director of Meteorology, Weather Underground
By Kari Strenfel
Meteorologist, Weather Underground
By Christopher C. Burt
Weather Historian, Weather Underground
October 1, 2014
October 1, 2014
October 1, 2014

Nearby

Snow Depth

Station Depth Elevation
Chemult Alternate 0 in 4760 ft
Silver Creek 0 in 5720 ft
Peavine Ridge 0 in 3500 ft
Blue Mountain Spring 0 in 5900 ft
Irish Taylor 0 in 5500 ft

Earthquake Activity

City Distance Mag. Time & Date
No recent earthquake activity has been reported nearby.
Minimum magnitude displayed is 2.5.

Coastal Water Temperatures

Place Temperature
No Stations Reporting

Nearby Weather Stations